createdAt,value
2022-11-05T00:00:05.645Z,74.10
2022-11-05T00:02:51.225Z,73.90
2022-11-05T00:05:38.009Z,73.90
2022-11-05T00:08:24.002Z,73.90
2022-11-05T00:10:52.162Z,73.90
2022-11-05T00:13:37.682Z,73.70
2022-11-05T00:16:35.260Z,73.70
2022-11-05T00:19:10.064Z,73.80
2022-11-05T00:21:57.464Z,73.80
2022-11-05T00:24:43.351Z,73.80
2022-11-05T00:27:11.956Z,73.70
2022-11-05T00:29:40.047Z,73.70
2022-11-05T00:32:08.104Z,73.70
2022-11-05T00:34:36.162Z,73.70
2022-11-05T00:37:05.780Z,73.80
2022-11-05T00:39:33.844Z,73.70
2022-11-05T00:42:18.327Z,73.80
2022-11-05T00:45:04.394Z,73.80
2022-11-05T00:47:51.765Z,73.70
2022-11-05T00:50:20.933Z,73.80
2022-11-05T00:52:59.616Z,73.80
2022-11-05T00:55:33.466Z,73.70
2022-11-05T00:58:04.425Z,73.70
2022-11-05T01:00:35.069Z,73.80
2022-11-05T01:03:04.829Z,73.80
2022-11-05T01:05:34.236Z,73.80
2022-11-05T01:08:03.640Z,73.80
2022-11-05T01:10:31.692Z,73.80
2022-11-05T01:12:59.825Z,73.80
2022-11-05T01:15:28.226Z,73.80
2022-11-05T01:17:56.288Z,73.70
2022-11-05T01:20:24.421Z,73.70
2022-11-05T01:22:52.461Z,73.80
2022-11-05T01:25:22.101Z,73.70
2022-11-05T01:27:50.382Z,73.80
2022-11-05T01:30:18.613Z,73.80
2022-11-05T01:32:47.010Z,73.80
2022-11-05T01:35:17.015Z,73.80
2022-11-05T01:37:45.308Z,73.70
2022-11-05T01:40:14.831Z,73.70
2022-11-05T01:42:44.955Z,73.60
2022-11-05T01:45:15.991Z,73.60
2022-11-05T01:47:51.456Z,73.70
2022-11-05T01:50:28.249Z,73.70
2022-11-05T01:53:02.225Z,73.70
2022-11-05T01:55:35.310Z,73.60
2022-11-05T01:58:08.299Z,73.50
2022-11-05T02:00:37.299Z,73.60
2022-11-05T02:03:05.766Z,73.70
2022-11-05T02:05:35.086Z,73.80
2022-11-05T02:08:04.000Z,73.80
2022-11-05T02:10:33.212Z,73.90
2022-11-05T02:13:01.430Z,73.90
2022-11-05T02:15:41.485Z,74.00
2022-11-05T02:18:21.400Z,74.10
2022-11-05T02:20:59.009Z,74.10
2022-11-05T02:23:55.401Z,74.10
2022-11-05T02:26:51.607Z,74.10
2022-11-05T02:29:57.206Z,74.20
2022-11-05T02:32:50.657Z,74.20
2022-11-05T02:35:31.523Z,74.10
2022-11-05T02:38:07.686Z,74.10
2022-11-05T02:40:46.813Z,74.10
2022-11-05T02:43:20.621Z,74.20
2022-11-05T02:45:55.349Z,74.10
2022-11-05T02:48:30.738Z,74.10
2022-11-05T02:51:06.302Z,74.20
2022-11-05T02:53:43.227Z,74.30
2022-11-05T02:56:18.206Z,74.30
2022-11-05T02:58:46.391Z,74.40
2022-11-05T03:01:15.048Z,74.40
2022-11-05T03:03:49.411Z,74.30
2022-11-05T03:06:49.895Z,74.30
2022-11-05T03:09:39.380Z,74.40
2022-11-05T03:12:19.889Z,74.30
2022-11-05T03:14:56.303Z,74.40
2022-11-05T03:17:34.398Z,74.50
2022-11-05T03:20:15.117Z,74.50
2022-11-05T03:22:48.644Z,74.50
2022-11-05T03:25:20.977Z,74.40
2022-11-05T03:27:55.386Z,74.40
2022-11-05T03:30:25.051Z,74.50
2022-11-05T03:32:59.356Z,74.60
2022-11-05T03:35:32.603Z,75.20
2022-11-05T03:38:05.145Z,74.60
2022-11-05T03:40:36.480Z,74.60
2022-11-05T03:43:09.746Z,74.50
2022-11-05T03:45:43.285Z,74.50
2022-11-05T03:48:14.574Z,74.50
2022-11-05T03:50:52.473Z,74.50
2022-11-05T03:53:24.653Z,74.50
2022-11-05T03:55:59.257Z,74.50
2022-11-05T03:58:28.336Z,74.40
2022-11-05T04:00:56.725Z,74.40
2022-11-05T04:03:24.897Z,74.30
2022-11-05T04:06:12.290Z,74.30
2022-11-05T04:08:59.873Z,74.10
2022-11-05T04:11:45.968Z,74.10
2022-11-05T04:14:14.161Z,74.00
2022-11-05T04:16:59.504Z,74.20
2022-11-05T04:19:41.540Z,74.40
2022-11-05T04:22:28.294Z,74.50
2022-11-05T04:24:56.452Z,74.60
2022-11-05T04:27:24.680Z,74.80
2022-11-05T04:30:10.055Z,74.70
2022-11-05T04:32:38.215Z,74.60
2022-11-05T04:35:07.382Z,74.50
2022-11-05T04:37:36.994Z,74.50
2022-11-05T04:40:05.644Z,74.50
2022-11-05T04:42:33.815Z,74.50
2022-11-05T04:45:02.011Z,74.50
2022-11-05T04:47:30.179Z,74.60
2022-11-05T04:49:58.341Z,74.80
2022-11-05T04:52:26.525Z,75.00
2022-11-05T04:54:56.109Z,75.20
2022-11-05T04:57:24.319Z,75.40
2022-11-05T04:59:53.887Z,75.50
2022-11-05T05:02:22.233Z,75.40
2022-11-05T05:04:50.580Z,75.30
2022-11-05T05:07:19.063Z,75.10
2022-11-05T05:09:47.222Z,74.90
2022-11-05T05:12:16.944Z,74.90
2022-11-05T05:14:45.122Z,74.80
2022-11-05T05:17:13.287Z,74.90
2022-11-05T05:19:58.983Z,74.80
2022-11-05T05:22:27.254Z,74.80
2022-11-05T05:24:56.597Z,74.70
2022-11-05T05:27:26.168Z,74.60
2022-11-05T05:29:54.320Z,74.50
2022-11-05T05:32:22.463Z,74.50
2022-11-05T05:34:50.664Z,74.50
2022-11-05T05:37:19.292Z,74.50
2022-11-05T05:39:47.932Z,74.40
2022-11-05T05:42:16.585Z,74.40
2022-11-05T05:44:46.157Z,74.40
2022-11-05T05:47:15.197Z,74.30
2022-11-05T05:49:43.384Z,74.20
2022-11-05T05:52:11.570Z,74.10
2022-11-05T05:54:42.731Z,74.10
2022-11-05T05:57:11.684Z,74.00
2022-11-05T05:59:39.862Z,73.90
2022-11-05T06:02:09.518Z,74.00
2022-11-05T06:04:37.814Z,73.90
2022-11-05T06:07:06.005Z,74.00
2022-11-05T06:09:34.198Z,74.10
2022-11-05T06:12:02.428Z,74.10
2022-11-05T06:14:30.596Z,74.10
2022-11-05T06:16:58.764Z,74.20
2022-11-05T06:19:29.261Z,74.20
2022-11-05T06:21:57.537Z,74.20
2022-11-05T06:24:25.730Z,74.10
2022-11-05T06:26:53.892Z,74.10
2022-11-05T06:29:22.098Z,74.10
2022-11-05T06:31:50.259Z,74.10
2022-11-05T06:34:18.445Z,74.10
2022-11-05T06:36:47.990Z,74.30
2022-11-05T06:39:16.171Z,74.30
2022-11-05T06:42:12.043Z,74.20
2022-11-05T06:44:33.460Z,74.30
2022-11-05T06:47:01.673Z,74.30
2022-11-05T06:49:29.909Z,74.30
2022-11-05T06:51:59.467Z,74.30
2022-11-05T06:54:27.653Z,74.10
2022-11-05T06:56:56.651Z,73.90
2022-11-05T06:59:24.879Z,73.90
2022-11-05T07:01:53.115Z,73.80
2022-11-05T07:04:21.397Z,73.80
2022-11-05T07:06:49.567Z,73.90
2022-11-05T07:09:19.383Z,73.90
2022-11-05T07:11:47.559Z,74.00
2022-11-05T07:14:15.933Z,74.00
2022-11-05T07:16:44.106Z,74.10
2022-11-05T07:19:12.393Z,74.20
2022-11-05T07:21:40.975Z,74.30
2022-11-05T07:24:09.793Z,74.40
2022-11-05T07:26:39.402Z,74.40
2022-11-05T07:29:07.580Z,74.40
2022-11-05T07:31:35.802Z,74.30
2022-11-05T07:34:04.725Z,74.30
2022-11-05T07:36:32.942Z,74.40
2022-11-05T07:39:01.113Z,74.40
2022-11-05T07:41:29.377Z,74.50
2022-11-05T07:43:58.977Z,74.50
2022-11-05T07:46:27.157Z,74.50
2022-11-05T07:48:55.322Z,74.40
2022-11-05T07:51:23.653Z,74.50
2022-11-05T07:53:51.835Z,74.40
2022-11-05T07:56:20.006Z,74.30
2022-11-05T07:58:48.196Z,74.30
2022-11-05T08:01:18.023Z,74.30
2022-11-05T08:03:46.448Z,74.40
2022-11-05T08:06:14.703Z,74.50
2022-11-05T08:08:42.934Z,74.50
2022-11-05T08:11:12.235Z,74.60
2022-11-05T08:13:42.795Z,74.70
2022-11-05T08:16:11.089Z,74.70
2022-11-05T08:18:40.700Z,74.80
2022-11-05T08:21:09.555Z,74.90
2022-11-05T08:23:39.038Z,75.00
2022-11-05T08:26:07.338Z,75.10
2022-11-05T08:28:35.548Z,75.10
2022-11-05T08:31:03.845Z,75.20
2022-11-05T08:33:33.203Z,75.30
2022-11-05T08:36:05.516Z,75.20
2022-11-05T08:38:33.692Z,75.30
2022-11-05T08:41:01.973Z,75.20
2022-11-05T08:43:30.156Z,75.40
2022-11-05T08:45:58.336Z,75.40
2022-11-05T08:48:26.530Z,75.20
2022-11-05T08:50:55.304Z,75.10
2022-11-05T08:53:24.861Z,74.90
2022-11-05T08:55:53.269Z,74.90
2022-11-05T08:58:21.459Z,75.00
2022-11-05T09:00:51.179Z,74.90
2022-11-05T09:03:19.798Z,74.90
2022-11-05T09:05:48.377Z,74.80
2022-11-05T09:08:18.840Z,74.80
2022-11-05T09:10:49.922Z,74.90
2022-11-05T09:13:20.102Z,74.80
2022-11-05T09:15:49.209Z,74.50
2022-11-05T09:18:18.604Z,74.20
2022-11-05T09:20:47.180Z,73.90
2022-11-05T09:23:16.187Z,73.70
2022-11-05T09:25:44.608Z,73.60
2022-11-05T09:28:17.143Z,73.30
2022-11-05T09:30:46.911Z,73.20
2022-11-05T09:33:15.800Z,73.20
2022-11-05T09:35:44.466Z,73.30
2022-11-05T09:38:12.936Z,73.00
2022-11-05T09:40:49.025Z,72.80
2022-11-05T09:43:26.083Z,72.40
2022-11-05T09:46:01.410Z,72.10
2022-11-05T09:48:32.010Z,72.90
2022-11-05T09:51:00.590Z,72.00
2022-11-05T09:53:29.135Z,71.80
2022-11-05T09:56:00.235Z,71.70
2022-11-05T09:58:38.209Z,71.40
2022-11-05T10:01:12.070Z,71.00
2022-11-05T10:03:46.731Z,70.90
2022-11-05T10:06:21.281Z,70.80
2022-11-05T10:08:52.900Z,70.30
2022-11-05T10:11:26.286Z,70.20
2022-11-05T10:13:59.934Z,70.00
2022-11-05T10:16:31.945Z,69.90
2022-11-05T10:19:06.240Z,69.60
2022-11-05T10:22:04.321Z,69.50
2022-11-05T10:24:23.250Z,69.30
2022-11-05T10:26:53.841Z,68.80
2022-11-05T10:29:27.571Z,68.90
2022-11-05T10:31:57.262Z,68.60
2022-11-05T10:34:28.538Z,68.90
2022-11-05T10:36:56.786Z,69.10
2022-11-05T10:39:27.723Z,69.90
2022-11-05T10:42:35.005Z,68.90
2022-11-05T10:45:15.782Z,69.00
2022-11-05T10:48:03.873Z,69.00
2022-11-05T10:50:32.906Z,69.00
2022-11-05T10:53:05.520Z,68.80
2022-11-05T10:55:37.391Z,68.60
2022-11-05T10:58:11.914Z,68.60
2022-11-05T11:00:41.813Z,68.60
2022-11-05T11:03:35.913Z,68.60
2022-11-05T11:06:07.807Z,68.30
2022-11-05T11:08:36.839Z,68.60
2022-11-05T11:11:08.962Z,69.10
2022-11-05T11:13:53.685Z,68.60
2022-11-05T11:16:24.695Z,68.60
2022-11-05T11:18:55.914Z,68.60
2022-11-05T11:21:24.951Z,68.80
2022-11-05T11:23:57.012Z,68.80
2022-11-05T11:26:27.340Z,68.40
2022-11-05T11:29:00.183Z,68.30
2022-11-05T11:31:32.501Z,68.10
2022-11-05T11:34:04.593Z,68.10
2022-11-05T11:36:41.388Z,68.20
2022-11-05T11:39:16.794Z,68.20
2022-11-05T11:41:46.201Z,68.30
2022-11-05T11:44:19.289Z,68.00
2022-11-05T11:46:51.256Z,67.90
2022-11-05T11:49:32.048Z,67.60
2022-11-05T11:52:04.440Z,68.20
2022-11-05T11:54:34.775Z,67.60
2022-11-05T11:57:03.075Z,66.80
2022-11-05T12:00:06.656Z,66.00
2022-11-05T12:02:58.807Z,65.80
2022-11-05T12:05:45.113Z,65.50
2022-11-05T12:08:34.581Z,65.90
2022-11-05T12:11:08.441Z,66.20
2022-11-05T12:14:05.668Z,66.20
2022-11-05T12:17:16.276Z,66.20
2022-11-05T12:20:14.894Z,66.20
2022-11-05T12:23:34.029Z,65.90
2022-11-05T12:26:08.835Z,65.20
2022-11-05T12:29:17.190Z,64.60
2022-11-05T12:31:51.267Z,63.70
2022-11-05T12:34:35.808Z,63.70
2022-11-05T12:37:17.383Z,63.40
2022-11-05T12:39:58.920Z,63.50
2022-11-05T12:42:44.120Z,63.40
2022-11-05T12:45:28.263Z,63.30
2022-11-05T12:48:12.610Z,62.90
2022-11-05T12:50:46.226Z,63.50
2022-11-05T12:53:48.780Z,63.00
2022-11-05T12:56:22.437Z,63.10
2022-11-05T12:58:59.267Z,62.50
2022-11-05T13:01:34.044Z,61.70
2022-11-05T13:04:08.988Z,61.40
2022-11-05T13:06:41.362Z,61.40
2022-11-05T13:09:16.444Z,61.30
2022-11-05T13:11:49.402Z,61.20
2022-11-05T13:14:21.557Z,61.40
2022-11-05T13:16:52.785Z,61.60
2022-11-05T13:19:24.762Z,61.60
2022-11-05T13:21:57.738Z,61.50
2022-11-05T13:24:32.230Z,61.60
2022-11-05T13:27:08.349Z,60.90
2022-11-05T13:29:42.500Z,61.00
2022-11-05T13:32:26.186Z,60.70
2022-11-05T13:34:57.298Z,60.50
2022-11-05T13:37:55.269Z,60.20
2022-11-05T13:40:48.081Z,60.30
2022-11-05T13:43:29.105Z,60.00
2022-11-05T13:46:17.760Z,60.30
2022-11-05T13:49:12.700Z,60.30
2022-11-05T13:51:59.826Z,60.20
2022-11-05T13:54:49.771Z,60.40
2022-11-05T13:57:34.592Z,60.60
2022-11-05T14:00:12.630Z,60.80
2022-11-05T14:02:45.319Z,60.70
2022-11-05T14:05:25.693Z,60.60
2022-11-05T14:07:55.084Z,60.00
2022-11-05T14:10:36.769Z,60.00
2022-11-05T14:13:18.743Z,60.00
2022-11-05T14:16:04.305Z,60.30
2022-11-05T14:18:42.357Z,61.50
2022-11-05T14:21:48.284Z,60.60
2022-11-05T14:24:29.606Z,60.40
2022-11-05T14:27:35.365Z,60.10
2022-11-05T14:30:41.517Z,60.00
2022-11-05T14:33:32.313Z,60.20
2022-11-05T14:36:30.930Z,60.20
2022-11-05T14:39:20.002Z,60.20
2022-11-05T14:42:13.298Z,60.50
2022-11-05T14:44:58.449Z,60.50
2022-11-05T14:47:32.861Z,60.80
2022-11-05T14:50:08.867Z,61.00
2022-11-05T14:52:38.302Z,61.30
2022-11-05T14:55:08.375Z,61.30
2022-11-05T14:58:06.568Z,61.50
2022-11-05T15:00:47.007Z,61.50
2022-11-05T15:04:01.165Z,61.70
2022-11-05T15:06:32.661Z,61.80
2022-11-05T15:09:29.066Z,61.80
2022-11-05T15:12:10.595Z,61.90
2022-11-05T15:14:49.059Z,62.00
2022-11-05T15:17:22.881Z,62.20
2022-11-05T15:19:54.389Z,62.10
2022-11-05T15:22:32.257Z,62.20
2022-11-05T15:25:01.118Z,62.00
2022-11-05T15:27:58.309Z,62.00
2022-11-05T15:30:26.568Z,61.70
2022-11-05T15:32:55.199Z,61.80
2022-11-05T15:35:29.648Z,61.80
2022-11-05T15:38:02.508Z,61.70
2022-11-05T15:40:33.275Z,61.80
2022-11-05T15:43:19.582Z,61.90
2022-11-05T15:46:04.049Z,61.80
2022-11-05T15:48:32.626Z,61.50
2022-11-05T15:51:02.967Z,61.70
2022-11-05T15:54:01.761Z,61.60
2022-11-05T15:56:25.924Z,61.60
2022-11-05T15:58:57.027Z,61.50
2022-11-05T16:01:29.396Z,61.20
2022-11-05T16:03:59.949Z,61.10
2022-11-05T16:06:36.702Z,61.30
2022-11-05T16:09:05.622Z,61.20
2022-11-05T16:11:33.894Z,61.30
2022-11-05T16:14:17.073Z,61.40
2022-11-05T16:16:46.257Z,61.20
2022-11-05T16:19:40.499Z,61.40
2022-11-05T16:22:10.578Z,61.30
2022-11-05T16:24:39.066Z,61.50
2022-11-05T16:27:08.224Z,61.60
2022-11-05T16:29:38.210Z,61.70
2022-11-05T16:32:15.081Z,61.80
2022-11-05T16:34:47.939Z,61.80
2022-11-05T16:37:20.054Z,62.00
2022-11-05T16:39:48.248Z,62.10
2022-11-05T16:42:40.962Z,62.20
2022-11-05T16:45:14.011Z,62.40
2022-11-05T16:47:43.448Z,62.70
2022-11-05T16:50:23.953Z,62.90
2022-11-05T16:52:54.065Z,62.90
2022-11-05T16:55:22.631Z,63.20
2022-11-05T16:57:53.533Z,63.20
2022-11-05T17:00:23.392Z,63.30
2022-11-05T17:02:51.977Z,63.40
2022-11-05T17:05:23.190Z,63.30
2022-11-05T17:07:53.413Z,63.40
2022-11-05T17:10:22.469Z,63.40
2022-11-05T17:12:51.665Z,63.40
2022-11-05T17:15:22.964Z,63.50
2022-11-05T17:17:51.762Z,63.50
2022-11-05T17:20:41.036Z,63.60
2022-11-05T17:23:12.860Z,63.40
2022-11-05T17:25:42.167Z,63.50
2022-11-05T17:28:11.777Z,63.50
2022-11-05T17:30:41.991Z,63.60
2022-11-05T17:33:12.004Z,63.50
2022-11-05T17:35:41.100Z,63.60
2022-11-05T17:38:11.332Z,63.50
2022-11-05T17:40:39.868Z,63.50
2022-11-05T17:43:09.025Z,63.50
2022-11-05T17:45:43.890Z,63.50
2022-11-05T17:48:12.733Z,63.60
2022-11-05T17:50:42.216Z,63.70
2022-11-05T17:53:12.622Z,63.70
2022-11-05T17:55:42.746Z,63.80
2022-11-05T17:58:11.108Z,64.40
2022-11-05T18:00:40.282Z,63.70
2022-11-05T18:03:08.999Z,63.80
2022-11-05T18:05:38.033Z,63.70
2022-11-05T18:08:07.100Z,63.80
2022-11-05T18:10:37.965Z,63.70
2022-11-05T18:13:06.611Z,63.70
2022-11-05T18:15:36.378Z,63.60
2022-11-05T18:18:05.174Z,63.60
2022-11-05T18:20:33.521Z,63.60
2022-11-05T18:23:01.755Z,63.40
2022-11-05T18:25:29.976Z,63.40
2022-11-05T18:27:59.720Z,63.30
2022-11-05T18:30:27.930Z,63.20
2022-11-05T18:32:56.125Z,63.30
2022-11-05T18:35:24.376Z,63.10
2022-11-05T18:37:52.850Z,63.10
2022-11-05T18:40:21.077Z,63.10
2022-11-05T18:42:49.277Z,63.10
2022-11-05T18:45:19.163Z,63.10
2022-11-05T18:47:47.493Z,63.10
2022-11-05T18:50:15.686Z,63.20
2022-11-05T18:52:44.170Z,63.10
2022-11-05T18:55:12.344Z,63.00
2022-11-05T18:57:40.686Z,62.90
2022-11-05T19:00:10.255Z,62.90
2022-11-05T19:02:40.268Z,62.90
2022-11-05T19:07:57.692Z,62.90
2022-11-05T19:10:26.348Z,62.90
2022-11-05T19:12:54.722Z,63.00
2022-11-05T19:15:22.970Z,63.00
2022-11-05T19:17:52.567Z,63.10
2022-11-05T19:20:20.850Z,63.30
2022-11-05T19:22:49.055Z,63.30
2022-11-05T19:25:17.588Z,63.50
2022-11-05T19:27:45.792Z,63.50
2022-11-05T19:30:14.249Z,63.90
2022-11-05T19:32:42.625Z,63.90
2022-11-05T19:35:12.366Z,64.00
2022-11-05T19:37:40.757Z,64.20
2022-11-05T19:40:11.096Z,64.30
2022-11-05T19:42:39.336Z,64.30
2022-11-05T19:45:38.490Z,64.50
2022-11-05T19:47:56.826Z,64.40
2022-11-05T19:50:26.421Z,64.70
2022-11-05T19:52:54.633Z,64.80
2022-11-05T19:55:22.837Z,64.80
2022-11-05T19:57:51.023Z,64.90
2022-11-05T20:00:19.646Z,65.00
2022-11-05T20:02:48.114Z,65.00
2022-11-05T20:05:18.299Z,65.10
2022-11-05T20:07:52.828Z,65.80
2022-11-05T20:10:22.081Z,65.10
2022-11-05T20:12:50.547Z,65.20
2022-11-05T20:15:19.777Z,65.40
2022-11-05T20:17:51.708Z,65.40
2022-11-05T20:20:20.812Z,65.60
2022-11-05T20:22:52.263Z,65.60
2022-11-05T20:25:20.509Z,65.80
2022-11-05T20:27:48.726Z,66.00
2022-11-05T20:30:17.477Z,65.90
2022-11-05T20:32:45.641Z,66.00
2022-11-05T20:35:13.877Z,66.00
2022-11-05T20:37:42.054Z,66.00
2022-11-05T20:40:14.079Z,66.10
2022-11-05T20:42:43.070Z,66.30
2022-11-05T20:45:12.115Z,66.40
2022-11-05T20:47:40.313Z,66.50
2022-11-05T20:50:10.281Z,66.70
2022-11-05T20:52:38.485Z,66.80
2022-11-05T20:55:09.115Z,66.90
2022-11-05T20:57:38.873Z,67.00
2022-11-05T21:00:09.104Z,67.10
2022-11-05T21:02:39.829Z,67.20
2022-11-05T21:05:09.007Z,67.20
2022-11-05T21:07:37.776Z,67.30
2022-11-05T21:10:06.777Z,67.40
2022-11-05T21:12:34.977Z,67.80
2022-11-05T21:15:05.691Z,68.00
2022-11-05T21:17:33.871Z,68.30
2022-11-05T21:20:02.144Z,68.50
2022-11-05T21:22:30.344Z,68.80
2022-11-05T21:24:58.705Z,68.90
2022-11-05T21:27:26.926Z,69.00
2022-11-05T21:29:55.099Z,69.20
2022-11-05T21:32:24.763Z,69.30
2022-11-05T21:34:52.996Z,69.40
2022-11-05T21:37:22.175Z,69.40
2022-11-05T21:39:50.388Z,69.60
2022-11-05T21:42:18.577Z,69.70
2022-11-05T21:44:46.744Z,69.80
2022-11-05T21:47:14.999Z,69.80
2022-11-05T21:49:44.797Z,70.00
2022-11-05T21:52:30.583Z,70.10
2022-11-05T21:55:16.337Z,70.10
2022-11-05T21:58:10.795Z,70.10
2022-11-05T22:00:39.271Z,70.10
2022-11-05T22:03:07.496Z,70.20
2022-11-05T22:05:37.208Z,70.20
2022-11-05T22:08:05.636Z,70.20
2022-11-05T22:10:33.791Z,70.30
2022-11-05T22:13:02.786Z,70.40
2022-11-05T22:15:30.969Z,70.50
2022-11-05T22:17:59.144Z,70.50
2022-11-05T22:20:27.349Z,70.50
2022-11-05T22:22:56.930Z,70.60
2022-11-05T22:25:25.407Z,70.70
2022-11-05T22:27:53.564Z,70.60
2022-11-05T22:30:21.716Z,70.80
2022-11-05T22:32:50.031Z,70.90
2022-11-05T22:35:18.467Z,71.10
2022-11-05T22:37:46.638Z,71.00
2022-11-05T22:40:16.278Z,71.10
2022-11-05T22:42:44.564Z,71.20
2022-11-05T22:45:12.780Z,71.30
2022-11-05T22:47:43.067Z,71.30
2022-11-05T22:50:11.572Z,71.40
2022-11-05T22:52:39.763Z,71.40
2022-11-05T22:55:08.310Z,71.40
2022-11-05T22:57:38.009Z,71.40
2022-11-05T23:00:13.617Z,71.50
2022-11-05T23:02:41.912Z,71.60
2022-11-05T23:05:10.732Z,71.60
2022-11-05T23:07:56.592Z,71.60
2022-11-05T23:10:42.464Z,71.70
2022-11-05T23:13:12.034Z,71.70
2022-11-05T23:15:57.740Z,71.80
2022-11-05T23:18:43.415Z,71.80
2022-11-05T23:21:29.081Z,71.80
2022-11-05T23:24:06.280Z,71.90
2022-11-05T23:26:51.302Z,72.00
2022-11-05T23:29:22.276Z,72.10
2022-11-05T23:32:08.499Z,72.10
2022-11-05T23:34:36.738Z,72.00
2022-11-05T23:37:22.993Z,72.00
2022-11-05T23:39:51.463Z,71.90
2022-11-05T23:42:37.204Z,71.90
2022-11-05T23:45:25.863Z,71.80
2022-11-05T23:48:12.189Z,71.80
2022-11-05T23:50:41.194Z,71.70
2022-11-05T23:53:09.921Z,71.70
2022-11-05T23:55:38.171Z,71.70
2022-11-05T23:58:06.716Z,71.90
